This is the latest recevied weather packets stored in our database for station/object SQ9PDE-13. If no packets are shown the sender has not sent any weather packets the latest 10 day(s).
| Time | Temp. | Humidity | Pressure | Rain* | Wind** | Luminosity | Snow |
|---|---|---|---|---|---|---|---|
| 1788026006 | 18.33° C | 66% | 1017.2 hPa | - | - | - | - |
| 1788025843 | 18.33° C | 65% | 1017.1 hPa | - | - | - | - |
| 1788025705 | 18.33° C | 65% | 1017.1 hPa | - | - | - | - |
| 1788025457 | 18.89° C | 63% | 1017 hPa | - | - | - | - |
| 1788025405 | 18.89° C | 63% | 1017 hPa | - | - | - | - |
| 1788025104 | 19.44° C | 61% | 1016.8 hPa | - | - | - | - |
| 1788024978 | 19.44° C | 62% | 1016.8 hPa | - | - | - | - |
| 1788024861 | 19.44° C | 62% | 1016.8 hPa | - | - | - | - |
| 1788024617 | 19.44° C | 60% | 1016.6 hPa | - | - | - | - |
| 1788024560 | 19.44° C | 60% | 1016.6 hPa | - | - | - | - |
| 1788024260 | 19.44° C | 60% | 1016.6 hPa | - | - | - | - |
| 1788024015 | 20° C | 59% | 1016.6 hPa | - | - | - | - |
| 1788023959 | 20° C | 59% | 1016.6 hPa | - | - | - | - |
| 1788023658 | 20° C | 59% | 1016.5 hPa | - | - | - | - |
| 1788023358 | 20.56° C | 57% | 1016.4 hPa | - | - | - | - |
| 1788023057 | 20.56° C | 57% | 1016.4 hPa | - | - | - | - |
| 1788022757 | 21.11° C | 54% | 1016.3 hPa | - | - | - | - |
| 1788022456 | 21.11° C | 55% | 1016.2 hPa | - | - | - | - |
| 1788022239 | 21.11° C | 54% | 1016.2 hPa | - | - | - | - |
| 1788022156 | 21.11° C | 54% | 1016.2 hPa | - | - | - | - |
| 1788021855 | 21.11° C | 53% | 1016.2 hPa | - | - | - | - |
| 1788021555 | 21.11° C | 54% | 1016.2 hPa | - | - | - | - |
| 1788020954 | 21.67° C | 51% | 1016.1 hPa | - | - | - | - |
| 1788020653 | 21.67° C | 51% | 1016 hPa | - | - | - | - |
| 1788020353 | 21.67° C | 53% | 1016.1 hPa | - | - | - | - |
* Rain since midnight (hover to see other rain measurements)
** Current wind speed in m/s (hover to see current wind gust speed)